Time;durP1;ratioP1;P1;durP2;ratioP2;P2;SDS_P1;SDS_P2;PMS_P1;PMS_P2;Temp;Humidity;BMP_temperature;BMP_pressure;BME280_temperature;BME280_humidity;BME280_pressure;Samples;Min_cycle;Max_cycle;Signal;HPM_P1;HPM_P2
2021/12/11 00:00:59;;;;;;;37.47;18.80;;;-2.70;99.90;;;;;;4941187;29;20106;-92
2021/12/11 00:04:16;;;;;;;39.67;19.20;;;-3.10;99.90;;;;;;4941466;29;20083;-91
2021/12/11 00:06:53;;;;;;;37.77;18.43;;;-3.20;99.90;;;;;;4940187;29;20059;-91
2021/12/11 00:09:27;;;;;;;38.00;18.10;;;-3.10;99.90;;;;;;4940855;29;20050;-91
2021/12/11 00:12:31;;;;;;;38.67;19.00;;;-3.20;99.90;;;;;;4940937;29;20051;-91
2021/12/11 00:15:29;;;;;;;38.53;18.52;;;-2.70;99.90;;;;;;4878379;29;20051;-91
2021/12/11 00:18:13;;;;;;;37.10;18.37;;;-3.70;99.90;;;;;;4940193;29;20043;-91
2021/12/11 00:21:14;;;;;;;34.93;17.47;;;-1.90;99.90;;;;;;4940757;29;20532;-90
2021/12/11 00:24:14;;;;;;;34.87;17.90;;;-3.00;99.90;;;;;;4936614;29;20137;-91
2021/12/11 00:26:55;;;;;;;37.23;19.10;;;-3.20;99.90;;;;;;4935598;29;20420;-90
2021/12/11 00:29:37;;;;;;;39.63;19.77;;;-3.40;99.90;;;;;;4939961;29;20143;-92
2021/12/11 00:35:20;;;;;;;38.10;19.23;;;-3.30;99.90;;;;;;4955870;29;20055;-90
2021/12/11 00:37:58;;;;;;;40.47;20.77;;;-3.40;99.90;;;;;;4939924;29;20043;-91
2021/12/11 00:40:26;;;;;;;44.57;19.60;;;-3.50;99.90;;;;;;4940484;29;20134;-91
2021/12/11 00:42:58;;;;;;;42.20;21.23;;;-3.50;99.90;;;;;;4956204;28;20039;-91
2021/12/11 00:45:31;;;;;;;42.23;20.20;;;-3.60;99.90;;;;;;4939202;29;20145;-91
2021/12/11 00:48:04;;;;;;;36.93;18.70;;;-3.40;99.90;;;;;;4940040;29;20046;-92
2021/12/11 00:51:02;;;;;;;39.25;19.80;;;-3.20;99.90;;;;;;4940214;29;20704;-91
2021/12/11 00:54:01;;;;;;;39.93;19.73;;;-4.50;99.90;;;;;;4940457;29;20051;-91
2021/12/11 00:56:36;;;;;;;38.70;18.43;;;-3.20;99.90;;;;;;4904527;29;20051;-92
2021/12/11 00:59:09;;;;;;;37.80;18.83;;;-3.30;99.90;;;;;;4939518;29;20046;-91
2021/12/11 01:01:52;;;;;;;45.00;21.33;;;-3.30;99.90;;;;;;4940031;29;20045;-92
2021/12/11 01:04:41;;;;;;;37.60;19.53;;;-3.10;99.90;;;;;;4955538;29;20043;-92
2021/12/11 01:07:19;;;;;;;38.10;18.27;;;-3.20;99.90;;;;;;4940178;29;20078;-91
2021/12/11 01:09:52;;;;;;;34.03;16.93;;;-3.30;99.90;;;;;;4939761;29;20054;-91
2021/12/11 01:12:57;;;;;;;33.00;16.50;;;-3.20;99.90;;;;;;4939405;29;20059;-92
2021/12/11 01:15:40;;;;;;;36.88;16.75;;;-3.10;99.90;;;;;;4939756;29;20046;-91
2021/12/11 01:24:29;;;;;;;38.60;18.63;;;-3.50;99.90;;;;;;4978463;28;20024;-91
2021/12/11 01:27:25;;;;;;;37.00;18.30;;;-2.00;99.90;;;;;;4960697;29;20075;-92
2021/12/11 01:29:58;;;;;;;38.63;17.77;;;-3.50;99.90;;;;;;4972391;28;20106;-91
2021/12/11 01:32:34;;;;;;;38.20;18.20;;;-3.20;99.90;;;;;;4947263;29;20043;-90
2021/12/11 01:35:03;;;;;;;34.90;17.83;;;-3.50;99.90;;;;;;4947541;29;20043;-91
2021/12/11 01:37:32;;;;;;;36.67;17.27;;;-3.60;99.90;;;;;;4940045;29;20411;-91
2021/12/11 01:39:57;;;;;;;33.63;17.57;;;-3.80;99.90;;;;;;4939326;29;20035;-92
2021/12/11 01:42:33;;;;;;;32.90;16.70;;;-3.60;99.90;;;;;;4937336;29;20103;-91
2021/12/11 01:45:17;;;;;;;38.10;18.20;;;-3.70;99.90;;;;;;4939026;29;20050;-91
2021/12/11 01:47:49;;;;;;;34.93;17.30;;;-3.60;99.90;;;;;;4937953;29;20051;-92
2021/12/11 01:50:40;;;;;;;37.33;17.77;;;-2.50;99.90;;;;;;4939186;29;20039;-91
2021/12/11 01:53:48;;;;;;;35.57;17.27;;;-3.50;99.90;;;;;;4939403;29;20054;-91
2021/12/11 01:56:29;;;;;;;37.37;17.57;;;-3.80;99.90;;;;;;4939253;29;20110;-91
2021/12/11 01:59:05;;;;;;;34.43;17.10;;;-3.90;99.90;;;;;;4939212;29;20102;-91
2021/12/11 02:01:44;;;;;;;35.67;17.77;;;-3.60;99.90;;;;;;4938461;29;20031;-91
2021/12/11 02:04:13;;;;;;;33.67;16.57;;;-3.90;99.90;;;;;;4939679;29;20091;-91
2021/12/11 02:06:55;;;;;;;29.73;16.13;;;-4.00;99.90;;;;;;4939250;29;20090;-92
2021/12/11 02:12:40;;;;;;;34.53;17.60;;;-3.90;99.90;;;;;;4958591;28;20040;-92
2021/12/11 02:15:30;;;;;;;35.03;16.93;;;-3.60;99.90;;;;;;4956155;28;20043;-91
2021/12/11 02:20:56;;;;;;;37.70;18.77;;;-3.70;99.90;;;;;;4972472;23;20051;-91
2021/12/11 02:23:23;;;;;;;38.07;17.37;;;-4.00;99.90;;;;;;4943099;29;20059;-91
2021/12/11 02:25:52;;;;;;;35.67;17.60;;;-2.30;99.90;;;;;;4942565;29;20055;-91
2021/12/11 02:28:20;;;;;;;33.33;17.50;;;-4.10;99.90;;;;;;4947207;23;20044;-91
2021/12/11 02:31:08;;;;;;;34.63;17.60;;;-4.00;99.90;;;;;;4923086;29;20107;-90
2021/12/11 02:34:06;;;;;;;33.43;17.97;;;-3.50;99.90;;;;;;4923279;29;20048;-91
2021/12/11 02:37:08;;;;;;;35.13;18.13;;;-4.00;99.90;;;;;;4938417;29;20055;-91
2021/12/11 02:40:00;;;;;;;36.07;17.17;;;-3.80;99.90;;;;;;4939520;29;20106;-91
2021/12/11 02:43:08;;;;;;;37.67;17.47;;;-3.90;99.90;;;;;;4923987;29;20082;-92
2021/12/11 02:45:52;;;;;;;35.13;17.50;;;-3.40;99.90;;;;;;4923748;29;20048;-91
2021/12/11 02:48:50;;;;;;;35.57;16.77;;;-3.30;99.90;;;;;;4923506;29;20388;-91
2021/12/11 02:53:47;;;;;;;35.70;16.93;;;-3.90;99.90;;;;;;5018737;23;20051;-91
2021/12/11 02:56:20;;;;;;;36.43;17.57;;;-4.10;99.90;;;;;;4943802;29;20411;-91
2021/12/11 02:58:53;;;;;;;36.67;16.67;;;-4.00;99.90;;;;;;4941973;29;20039;-91
2021/12/11 03:01:38;;;;;;;37.90;16.97;;;-4.10;99.90;;;;;;4938452;29;20115;-91
2021/12/11 03:04:18;;;;;;;33.93;15.87;;;-3.90;99.90;;;;;;4922595;29;20054;-91
2021/12/11 03:06:54;;;;;;;37.43;17.67;;;-4.00;99.90;;;;;;4921512;29;20409;-91
2021/12/11 03:09:27;;;;;;;35.13;17.90;;;-4.40;99.90;;;;;;4922898;29;20047;-91
2021/12/11 03:12:11;;;;;;;35.20;16.93;;;-3.20;99.90;;;;;;4922292;29;20047;-91
2021/12/11 03:14:37;;;;;;;32.97;16.88;;;-2.70;99.90;;;;;;4923745;29;20044;-91
2021/12/11 03:17:06;;;;;;;36.00;16.87;;;-4.20;99.90;;;;;;4933185;29;20055;-92
2021/12/11 03:19:33;;;;;;;33.73;15.70;;;-3.60;99.90;;;;;;4927743;29;20480;-91
2021/12/11 03:22:05;;;;;;;33.30;17.33;;;-4.10;99.90;;;;;;4922121;29;20063;-91
2021/12/11 03:24:33;;;;;;;33.30;17.53;;;-4.10;99.90;;;;;;4925304;29;20093;-91
2021/12/11 03:27:00;;;;;;;40.43;18.17;;;-3.40;99.90;;;;;;4933117;29;20047;-91
2021/12/11 03:29:42;;;;;;;37.43;18.00;;;-4.10;99.90;;;;;;4924179;29;20044;-90
2021/12/11 03:32:10;;;;;;;37.07;17.90;;;-4.40;99.90;;;;;;4922351;29;20044;-92
2021/12/11 03:34:37;;;;;;;36.63;17.30;;;-4.40;99.90;;;;;;4922898;29;20413;-92
2021/12/11 03:37:06;;;;;;;38.43;17.97;;;-4.10;99.90;;;;;;4923053;29;20189;-92
2021/12/11 03:39:38;;;;;;;38.13;17.80;;;-4.20;99.90;;;;;;4922288;29;20040;-91
2021/12/11 03:42:11;;;;;;;40.87;18.03;;;-4.30;99.90;;;;;;4922098;29;20099;-92
2021/12/11 03:44:39;;;;;;;35.72;17.90;;;-3.40;99.90;;;;;;4922049;29;20401;-92
2021/12/11 03:47:09;;;;;;;36.80;18.43;;;-4.20;99.90;;;;;;4922831;29;20058;-92
2021/12/11 03:49:35;;;;;;;34.30;18.30;;;-4.10;99.90;;;;;;4922446;29;20044;-91
2021/12/11 03:52:03;;;;;;;43.23;19.63;;;-4.20;99.90;;;;;;4922463;29;20059;-92
2021/12/11 03:54:35;;;;;;;39.67;19.23;;;-3.90;99.90;;;;;;4922126;29;20477;-92
2021/12/11 03:57:01;;;;;;;40.47;19.67;;;-4.10;99.90;;;;;;4922317;29;20180;-92
2021/12/11 03:59:27;;;;;;;38.90;18.67;;;-4.10;99.90;;;;;;4923351;29;20103;-91
2021/12/11 04:02:00;;;;;;;43.93;20.17;;;-4.20;99.90;;;;;;4920649;29;20043;-92
2021/12/11 04:04:34;;;;;;;43.72;20.40;;;-3.60;99.90;;;;;;4922068;29;20079;-92
2021/12/11 04:07:03;;;;;;;44.13;21.23;;;-2.80;99.90;;;;;;4939493;29;20049;-92
2021/12/11 04:09:33;;;;;;;41.97;20.87;;;-2.90;99.90;;;;;;4921892;29;20539;-92
2021/12/11 04:12:00;;;;;;;46.10;20.80;;;-3.00;99.90;;;;;;4921858;29;20055;-92
2021/12/11 04:14:32;;;;;;;45.47;19.67;;;-3.30;99.90;;;;;;4921959;29;20477;-92
2021/12/11 04:17:21;;;;;;;43.67;20.47;;;-3.20;99.90;;;;;;4922399;29;20063;-92
2021/12/11 04:19:48;;;;;;;43.87;19.63;;;-4.20;99.90;;;;;;4921863;29;20143;-92
2021/12/11 04:22:14;;;;;;;42.33;20.83;;;-3.30;99.90;;;;;;4952987;23;20088;-91
2021/12/11 04:24:43;;;;;;;41.47;20.97;;;-4.20;99.90;;;;;;4937755;29;20047;-92
2021/12/11 04:27:13;;;;;;;40.50;20.30;;;-4.20;99.90;;;;;;4937141;29;20444;-92
2021/12/11 04:29:40;;;;;;;43.10;21.27;;;-3.40;99.90;;;;;;4920777;29;20130;-92
2021/12/11 04:32:07;;;;;;;45.27;20.97;;;-4.20;99.90;;;;;;4922205;29;20135;-92
2021/12/11 04:34:34;;;;;;;41.40;19.73;;;-4.00;99.90;;;;;;4921875;29;20370;-92
2021/12/11 04:37:12;;;;;;;47.90;22.23;;;-4.50;99.90;;;;;;4920867;29;20047;-91
2021/12/11 04:39:40;;;;;;;48.60;23.77;;;-3.60;99.90;;;;;;4937462;29;20050;-91
2021/12/11 04:42:19;;;;;;;49.90;23.47;;;-3.40;99.90;;;;;;4921653;29;20043;-92
2021/12/11 04:44:47;;;;;;;52.53;22.97;;;-4.00;99.90;;;;;;4937112;29;20507;-92
2021/12/11 04:47:58;;;;;;;50.23;23.50;;;-4.20;99.90;;;;;;4921756;29;20107;-92
2021/12/11 04:50:31;;;;;;;49.87;24.23;;;-4.10;99.90;;;;;;4934176;29;20114;-92
2021/12/11 04:52:58;;;;;;;50.73;24.10;;;-4.00;99.90;;;;;;4937227;29;20044;-92
2021/12/11 04:55:42;;;;;;;58.30;26.70;;;-3.90;99.90;;;;;;4921913;29;20405;-91
2021/12/11 05:01:00;;;;;;;61.10;27.43;;;-3.90;99.90;;;;;;4936682;29;20081;-93
2021/12/11 05:09:22;;;;;;;56.57;27.30;;;-3.80;99.90;;;;;;4939308;29;20071;-92
2021/12/11 05:12:34;;;;;;;57.20;25.03;;;-3.90;99.90;;;;;;4929288;29;20547;-92
2021/12/11 05:15:04;;;;;;;54.83;24.97;;;-3.90;99.90;;;;;;4919465;29;20056;-91
2021/12/11 05:17:29;;;;;;;58.47;25.80;;;-5.30;99.90;;;;;;4942158;29;20035;-92
2021/12/11 05:19:55;;;;;;;52.97;25.10;;;-3.90;99.90;;;;;;4940695;29;20107;-92
2021/12/11 05:22:21;;;;;;;54.87;24.37;;;-4.00;99.90;;;;;;4939634;29;20055;-92
2021/12/11 05:24:53;;;;;;;54.77;23.63;;;-4.00;99.90;;;;;;4922616;29;20050;-91
2021/12/11 05:27:20;;;;;;;51.30;24.27;;;-4.30;99.90;;;;;;4938237;29;20051;-92
2021/12/11 05:29:46;;;;;;;48.67;23.63;;;-4.50;99.90;;;;;;4921368;29;20055;-93
2021/12/11 05:32:16;;;;;;;45.27;21.33;;;-4.30;99.90;;;;;;4919604;29;20562;-91
2021/12/11 05:34:42;;;;;;;44.67;21.17;;;-4.50;99.90;;;;;;4936769;29;20054;-92
2021/12/11 05:37:09;;;;;;;50.30;22.20;;;-4.20;99.90;;;;;;4920771;29;20063;-92
2021/12/11 05:39:35;;;;;;;45.23;22.10;;;-4.30;99.90;;;;;;4920334;29;20047;-92
2021/12/11 05:42:01;;;;;;;47.20;22.33;;;-4.30;99.90;;;;;;4937028;29;20035;-92
2021/12/11 05:44:27;;;;;;;44.90;22.10;;;-2.30;99.90;;;;;;4937133;29;20409;-92
2021/12/11 05:46:53;;;;;;;45.17;21.87;;;-4.30;99.90;;;;;;4919678;29;20044;-93
2021/12/11 05:49:29;;;;;;;47.47;22.40;;;-4.40;99.90;;;;;;4921333;29;20047;-92
2021/12/11 05:51:54;;;;;;;48.10;22.07;;;-4.10;99.90;;;;;;5037174;23;20137;-92
2021/12/11 05:57:18;;;;;;;56.07;26.47;;;-4.30;99.90;;;;;;4939634;29;20143;-92
2021/12/11 05:59:45;;;;;;;62.97;27.67;;;-5.10;99.90;;;;;;4938515;29;20407;-92
2021/12/11 06:02:17;;;;;;;62.07;27.70;;;-4.10;99.90;;;;;;4939920;29;20055;-92
2021/12/11 06:04:45;;;;;;;63.10;28.07;;;-3.70;99.90;;;;;;4939533;29;20063;-92
2021/12/11 06:07:19;;;;;;;58.60;29.13;;;-4.20;99.90;;;;;;4939756;29;20039;-92
2021/12/11 06:09:49;;;;;;;63.80;27.60;;;-3.40;99.90;;;;;;4940552;29;20130;-92
2021/12/11 06:12:17;;;;;;;58.93;28.10;;;-4.70;99.90;;;;;;4939610;29;20105;-92
2021/12/11 06:14:46;;;;;;;59.60;27.27;;;-4.00;99.90;;;;;;4941548;29;20047;-91
2021/12/11 06:17:16;;;;;;;57.87;25.93;;;-4.10;99.90;;;;;;4939927;29;20047;-92
2021/12/11 06:19:44;;;;;;;55.10;25.40;;;-4.10;99.90;;;;;;4939811;29;20047;-92
2021/12/11 06:22:09;;;;;;;56.20;25.27;;;-4.20;99.90;;;;;;4938963;29;20154;-92
2021/12/11 06:24:35;;;;;;;53.00;25.07;;;-4.30;99.90;;;;;;4938750;29;20108;-92
2021/12/11 06:27:01;;;;;;;52.17;23.80;;;-3.90;99.90;;;;;;4938889;29;20057;-92
2021/12/11 06:29:27;;;;;;;53.17;24.33;;;-4.20;99.90;;;;;;4937879;29;20051;-92
2021/12/11 06:32:00;;;;;;;51.13;24.57;;;-4.20;99.90;;;;;;4938683;29;20532;-92
2021/12/11 06:34:31;;;;;;;49.60;24.37;;;-4.30;99.90;;;;;;4939723;29;20035;-92
2021/12/11 06:36:57;;;;;;;49.13;23.10;;;-3.90;99.90;;;;;;4938725;29;20106;-92
2021/12/11 06:39:38;;;;;;;50.63;23.07;;;-4.50;99.90;;;;;;4939912;29;20043;-93
2021/12/11 06:42:06;;;;;;;48.23;23.17;;;-4.30;99.90;;;;;;4938418;29;20047;-92
2021/12/11 06:44:33;;;;;;;49.73;25.17;;;-4.10;99.90;;;;;;4940001;29;20436;-92
2021/12/11 06:47:02;;;;;;;50.00;24.30;;;-4.40;99.90;;;;;;4939164;29;20051;-92
2021/12/11 06:49:32;;;;;;;54.03;25.33;;;-4.40;99.90;;;;;;4938676;29;20086;-91
2021/12/11 06:51:58;;;;;;;46.50;23.17;;;-4.60;99.90;;;;;;4937655;29;20059;-83
2021/12/11 06:54:25;;;;;;;48.10;23.70;;;-4.30;99.90;;;;;;4936953;29;20051;-83
2021/12/11 06:56:52;;;;;;;46.13;24.33;;;-4.40;99.90;;;;;;4936614;29;20074;-83
2021/12/11 06:59:18;;;;;;;48.77;23.57;;;-4.30;99.90;;;;;;4937375;29;20047;-83
2021/12/11 07:01:44;;;;;;;48.40;23.43;;;-4.30;99.90;;;;;;4936991;29;20055;-82
2021/12/11 07:04:11;;;;;;;46.40;22.63;;;-4.20;99.90;;;;;;4936659;29;20039;-82
2021/12/11 07:06:46;;;;;;;45.33;23.03;;;-4.30;99.90;;;;;;4955327;28;20435;-82
2021/12/11 07:09:13;;;;;;;46.17;22.57;;;-4.30;99.90;;;;;;4940454;29;20044;-82
2021/12/11 07:11:42;;;;;;;47.57;23.00;;;-4.40;99.90;;;;;;4957291;29;20114;-83
2021/12/11 07:14:09;;;;;;;47.23;23.17;;;-4.40;99.90;;;;;;4940243;29;20047;-82
2021/12/11 07:16:35;;;;;;;45.00;22.03;;;-4.40;99.90;;;;;;4940310;29;20055;-82
2021/12/11 07:19:01;;;;;;;45.87;21.10;;;-4.40;99.90;;;;;;4939343;29;20397;-82
2021/12/11 07:21:30;;;;;;;42.30;20.47;;;-4.50;99.90;;;;;;4940136;29;20048;-81
2021/12/11 07:23:56;;;;;;;41.93;20.00;;;-4.50;99.90;;;;;;4940149;29;20536;-83
2021/12/11 07:26:31;;;;;;;43.13;21.37;;;-4.50;99.90;;;;;;4938774;29;20078;-82
2021/12/11 07:29:01;;;;;;;41.23;21.17;;;-4.60;99.90;;;;;;4939307;29;20066;-81
2021/12/11 07:31:28;;;;;;;43.73;21.13;;;-4.60;99.90;;;;;;4939366;29;20047;-81
2021/12/11 07:33:54;;;;;;;38.50;20.30;;;-4.60;99.90;;;;;;4939299;29;20155;-81
2021/12/11 07:36:21;;;;;;;43.17;21.00;;;-4.60;99.90;;;;;;4939957;29;20062;-81
2021/12/11 07:38:47;;;;;;;41.43;19.47;;;-4.60;99.90;;;;;;4938414;29;20043;-81
2021/12/11 07:41:15;;;;;;;44.70;21.97;;;-4.60;99.90;;;;;;4939575;29;20039;-81
2021/12/11 07:43:43;;;;;;;54.63;26.90;;;-4.60;99.90;;;;;;4936778;29;20059;-81
2021/12/11 07:46:13;;;;;;;53.60;26.97;;;-4.40;99.90;;;;;;4935066;29;20047;-81
2021/12/11 07:48:41;;;;;;;53.10;24.90;;;-4.60;99.90;;;;;;4937545;29;20091;-81
2021/12/11 07:51:07;;;;;;;51.83;23.30;;;-4.50;99.90;;;;;;4936582;29;20111;-81
2021/12/11 07:53:33;;;;;;;46.80;23.83;;;-4.50;99.90;;;;;;4935396;29;20055;-81
2021/12/11 07:55:59;;;;;;;46.73;23.57;;;-4.50;99.90;;;;;;4935825;29;20056;-81
2021/12/11 07:58:25;;;;;;;49.10;24.10;;;-4.50;99.90;;;;;;4936346;29;20062;-82
2021/12/11 08:00:51;;;;;;;49.33;24.77;;;-4.50;99.90;;;;;;4935212;29;20047;-81
2021/12/11 08:03:18;;;;;;;52.67;25.60;;;-4.40;99.90;;;;;;4935905;29;20130;-81
2021/12/11 08:05:47;;;;;;;51.60;25.63;;;-4.20;99.90;;;;;;4935447;29;20047;-81
2021/12/11 08:08:13;;;;;;;51.00;24.20;;;-4.40;99.90;;;;;;4935282;29;20098;-82
2021/12/11 08:10:42;;;;;;;47.17;25.27;;;-4.40;99.90;;;;;;4935957;29;20497;-82
2021/12/11 08:13:09;;;;;;;49.83;25.83;;;-4.40;99.90;;;;;;4935514;29;20058;-82
2021/12/11 08:15:35;;;;;;;46.30;23.63;;;-4.30;99.90;;;;;;4935443;29;20404;-82
2021/12/11 08:18:01;;;;;;;48.93;23.60;;;-4.30;99.90;;;;;;4936217;29;20062;-82
2021/12/11 08:20:31;;;;;;;53.03;24.63;;;-4.30;99.90;;;;;;4938254;29;20142;-81
2021/12/11 08:22:58;;;;;;;50.80;25.43;;;-4.20;99.90;;;;;;4935287;29;20051;-82
2021/12/11 08:25:26;;;;;;;50.30;24.13;;;-4.20;99.90;;;;;;4935841;29;20054;-82
2021/12/11 08:27:54;;;;;;;51.03;23.93;;;-4.10;99.90;;;;;;4934377;29;20044;-86
2021/12/11 08:30:19;;;;;;;53.17;24.53;;;-4.10;99.90;;;;;;4935167;29;20142;-82
2021/12/11 08:32:45;;;;;;;54.00;26.50;;;-4.10;99.90;;;;;;4935266;29;20076;-83
2021/12/11 08:35:12;;;;;;;54.60;26.93;;;-4.10;99.90;;;;;;4936433;29;20051;-81
2021/12/11 08:37:41;;;;;;;57.87;27.40;;;-3.40;99.90;;;;;;4936958;29;20046;-82
2021/12/11 08:40:13;;;;;;;55.27;26.37;;;-3.90;99.90;;;;;;4937148;29;20066;-82
2021/12/11 08:42:39;;;;;;;56.83;26.50;;;-3.80;99.90;;;;;;4934709;29;20103;-83
2021/12/11 08:45:10;;;;;;;56.30;27.57;;;-3.60;99.90;;;;;;4936306;29;20123;-81
2021/12/11 08:47:39;;;;;;;57.47;27.30;;;-3.80;99.90;;;;;;4936559;29;20040;-82
2021/12/11 08:50:13;;;;;;;62.07;28.87;;;-3.50;99.90;;;;;;4935253;29;20078;-82
2021/12/11 08:52:43;;;;;;;57.45;26.95;;;-3.80;99.90;;;;;;4935294;29;20146;-82
2021/12/11 08:55:20;;;;;;;62.93;29.70;;;-3.80;99.90;;;;;;4935565;29;20468;-82
2021/12/11 08:58:00;;;;;;;65.00;31.97;;;-3.60;99.90;;;;;;4934093;29;20043;-82
2021/12/11 09:00:43;;;;;;;70.30;31.80;;;-3.40;99.90;;;;;;4923523;29;20056;-82
2021/12/11 09:03:47;;;;;;;71.97;32.40;;;-3.30;99.90;;;;;;4919087;29;20606;-81
2021/12/11 09:06:39;;;;;;;76.20;33.97;;;-3.10;99.90;;;;;;4899304;29;20159;-82
2021/12/11 09:09:18;;;;;;;84.50;36.63;;;-3.10;99.90;;;;;;4933721;29;20059;-81
2021/12/11 09:11:54;;;;;;;82.73;38.23;;;-2.90;99.90;;;;;;4933801;29;20051;-82
2021/12/11 09:14:39;;;;;;;98.50;41.13;;;-2.80;99.90;;;;;;4934780;29;20050;-82
2021/12/11 09:17:15;;;;;;;100.77;43.23;;;-2.60;99.90;;;;;;4934036;29;20048;-82
2021/12/11 09:19:51;;;;;;;98.83;43.63;;;-2.30;99.90;;;;;;4934560;29;20063;-82
2021/12/11 09:22:35;;;;;;;96.53;43.17;;;-2.40;99.90;;;;;;4934950;29;20588;-82
2021/12/11 09:25:08;;;;;;;100.50;44.78;;;-2.30;99.90;;;;;;4933300;29;20071;-82
2021/12/11 09:27:50;;;;;;;121.77;63.37;;;-2.20;99.90;;;;;;4934021;29;20051;-82
2021/12/11 09:30:38;;;;;;;109.00;46.67;;;-2.10;99.90;;;;;;4932527;29;20039;-82
2021/12/11 09:33:08;;;;;;;117.10;52.97;;;-2.00;99.90;;;;;;4934294;29;20047;-82
2021/12/11 09:36:03;;;;;;;108.07;51.60;;;-1.70;99.90;;;;;;4934069;29;20409;-82
2021/12/11 09:38:34;;;;;;;111.53;51.33;;;-1.70;99.90;;;;;;4929035;29;20059;-82
2021/12/11 09:41:19;;;;;;;109.57;47.80;;;-1.60;99.90;;;;;;4933663;29;20040;-81
2021/12/11 09:44:23;;;;;;;111.50;51.47;;;-1.40;99.90;;;;;;4933210;29;20484;-82
2021/12/11 09:46:57;;;;;;;114.93;56.37;;;-1.40;99.90;;;;;;4889601;29;20488;-82
2021/12/11 09:49:27;;;;;;;117.05;56.53;;;-1.30;99.90;;;;;;4933619;29;20301;-82
2021/12/11 09:52:01;;;;;;;105.47;51.40;;;-1.20;99.90;;;;;;4935358;29;20046;-83
2021/12/11 09:54:29;;;;;;;110.27;50.37;;;-1.20;99.90;;;;;;4932401;29;20059;-83
2021/12/11 09:57:01;;;;;;;109.53;55.47;;;-0.90;99.90;;;;;;4934132;29;20047;-83
2021/12/11 09:59:30;;;;;;;102.53;52.40;;;-1.00;99.90;;;;;;4932918;29;20066;-82
2021/12/11 10:02:00;;;;;;;109.17;54.40;;;-0.90;99.90;;;;;;4933171;29;20046;-82
2021/12/11 10:04:46;;;;;;;94.67;48.13;;;-0.90;99.90;;;;;;4933402;29;20043;-82
2021/12/11 10:09:53;;;;;;;92.90;48.10;;;-0.80;99.90;;;;;;4933602;29;20184;-82
2021/12/11 10:12:25;;;;;;;100.80;49.00;;;-0.70;99.90;;;;;;4933327;29;20067;-83
2021/12/11 10:14:57;;;;;;;104.50;49.53;;;-0.70;99.90;;;;;;4933672;29;20043;-82
2021/12/11 10:17:29;;;;;;;91.97;47.97;;;-0.60;99.90;;;;;;4933132;29;20137;-83
2021/12/11 10:19:59;;;;;;;79.93;43.13;;;-0.50;99.90;;;;;;4933006;29;20441;-82
2021/12/11 10:22:32;;;;;;;86.73;48.37;;;-0.40;99.90;;;;;;4933944;29;20052;-83
2021/12/11 10:24:59;;;;;;;91.18;48.80;;;-0.40;99.90;;;;;;4933758;29;20496;-83
2021/12/11 10:27:31;;;;;;;105.27;60.37;;;-0.30;99.90;;;;;;4933119;29;20047;-83
2021/12/11 10:30:00;;;;;;;80.53;41.80;;;0.90;99.90;;;;;;4933676;29;20055;-83
2021/12/11 10:32:38;;;;;;;74.63;41.17;;;-0.30;99.90;;;;;;4933617;29;20068;-82
2021/12/11 10:35:14;;;;;;;77.90;42.10;;;-0.30;99.90;;;;;;4932850;29;20144;-83
2021/12/11 10:37:46;;;;;;;73.33;39.33;;;0.10;99.90;;;;;;4934149;29;20395;-84
2021/12/11 10:40:34;;;;;;;63.13;37.03;;;0.20;99.90;;;;;;4933759;29;20099;-83
2021/12/11 10:43:22;;;;;;;124.80;56.73;;;0.30;99.90;;;;;;4936232;29;20047;-83
2021/12/11 10:45:50;;;;;;;63.50;37.07;;;0.50;99.90;;;;;;4937648;29;20063;-82
2021/12/11 10:48:21;;;;;;;60.73;35.40;;;0.60;99.90;;;;;;4938785;29;20057;-83
2021/12/11 10:51:19;;;;;;;59.00;33.70;;;0.80;99.90;;;;;;4940422;29;20121;-83
2021/12/11 10:53:46;;;;;;;56.83;33.23;;;0.90;99.90;;;;;;4940259;29;20098;-83
2021/12/11 10:56:18;;;;;;;56.50;32.10;;;1.00;99.90;;;;;;4939848;29;20395;-82
2021/12/11 10:59:06;;;;;;;53.77;31.63;;;1.20;99.90;;;;;;4938386;29;20095;-82
2021/12/11 11:01:34;;;;;;;49.10;28.83;;;1.30;99.90;;;;;;4936788;29;20102;-82
2021/12/11 11:04:07;;;;;;;50.23;28.57;;;1.40;99.90;;;;;;4946383;29;20504;-83
2021/12/11 11:06:33;;;;;;;49.43;26.70;;;1.50;99.90;;;;;;4936186;29;20050;-82
2021/12/11 11:08:58;;;;;;;44.17;26.43;;;1.50;99.90;;;;;;4946821;29;20036;-82
2021/12/11 11:11:27;;;;;;;45.07;25.63;;;1.70;99.90;;;;;;4936897;29;20475;-82
2021/12/11 11:13:53;;;;;;;46.13;26.30;;;1.80;99.90;;;;;;4938164;29;20038;-82
2021/12/11 11:16:20;;;;;;;42.03;24.50;;;1.80;99.90;;;;;;4937369;29;20075;-81
2021/12/11 11:18:47;;;;;;;43.17;26.27;;;2.00;99.90;;;;;;4936601;29;20126;-81
2021/12/11 11:21:39;;;;;;;44.83;25.83;;;2.10;99.90;;;;;;4939055;29;20523;-81
2021/12/11 11:24:08;;;;;;;37.97;22.63;;;2.20;99.90;;;;;;4954489;29;20111;-83
2021/12/11 11:26:37;;;;;;;38.73;22.17;;;2.20;99.90;;;;;;4948735;29;20052;-81
2021/12/11 11:29:06;;;;;;;37.97;22.20;;;2.30;99.90;;;;;;4939027;29;20126;-84
2021/12/11 11:31:37;;;;;;;38.63;21.07;;;2.40;99.90;;;;;;4938391;29;20082;-84
2021/12/11 11:34:07;;;;;;;38.67;21.60;;;2.60;99.90;;;;;;4938781;23;20051;-84
2021/12/11 11:36:40;;;;;;;40.63;22.30;;;2.40;99.90;;;;;;4918217;29;20070;-85
2021/12/11 11:39:10;;;;;;;37.03;20.80;;;2.50;99.90;;;;;;4917858;29;20074;-83
2021/12/11 11:41:42;;;;;;;35.00;20.00;;;2.60;99.90;;;;;;4916226;29;20040;-83
2021/12/11 11:44:11;;;;;;;36.87;20.70;;;2.60;99.90;;;;;;4920313;29;20553;-86
2021/12/11 11:46:38;;;;;;;34.10;20.70;;;2.70;99.90;;;;;;4937409;29;20051;-85
2021/12/11 11:49:06;;;;;;;40.87;22.87;;;2.60;99.90;;;;;;4923925;29;20050;-85
2021/12/11 11:51:40;;;;;;;39.57;22.67;;;2.60;99.90;;;;;;4918140;29;20040;-85
2021/12/11 11:54:05;;;;;;;;;;;2.60;99.90;;;;;;4928722;29;20507;-84
2021/12/11 11:56:41;;;;;;;38.53;21.50;;;2.50;99.90;;;;;;4920179;29;19974;-86
2021/12/11 11:59:08;;;;;;;38.97;20.97;;;2.60;99.90;;;;;;4919744;29;20048;-87
2021/12/11 12:01:57;;;;;;;35.57;20.67;;;2.50;99.90;;;;;;4922460;29;20048;-86
2021/12/11 12:04:23;;;;;;;39.97;22.57;;;2.50;99.90;;;;;;4920716;29;20047;-85
2021/12/11 12:06:54;;;;;;;32.87;20.23;;;2.50;99.90;;;;;;4917134;29;20047;-85
2021/12/11 12:09:22;;;;;;;42.33;25.93;;;2.50;99.90;;;;;;4914758;29;20048;-84
2021/12/11 12:11:48;;;;;;;39.03;21.30;;;2.50;99.90;;;;;;4933120;29;20048;-84
2021/12/11 12:14:18;;;;;;;39.97;23.00;;;2.60;99.90;;;;;;4915930;29;20054;-84
2021/12/11 12:16:51;;;;;;;39.30;23.73;;;2.50;99.90;;;;;;4918138;29;20043;-85
2021/12/11 12:19:18;;;;;;;38.90;21.87;;;2.60;99.90;;;;;;4930454;29;20043;-82
2021/12/11 12:21:47;;;;;;;38.77;24.93;;;2.60;99.90;;;;;;4917183;29;20079;-83
2021/12/11 12:24:13;;;;;;;37.27;22.17;;;2.70;99.90;;;;;;4927544;29;20052;-84
2021/12/11 12:26:39;;;;;;;39.00;22.83;;;2.70;99.90;;;;;;4933629;23;20122;-82
2021/12/11 12:29:07;;;;;;;41.40;26.47;;;2.50;99.90;;;;;;4927860;29;20142;-84
2021/12/11 12:31:56;;;;;;;38.50;23.00;;;2.80;99.90;;;;;;4933144;29;20079;-83
2021/12/11 12:34:37;;;;;;;39.10;22.87;;;2.80;99.90;;;;;;4935668;29;20159;-85
2021/12/11 12:37:03;;;;;;;39.70;23.53;;;3.50;99.90;;;;;;4932777;29;20048;-84
2021/12/11 12:39:43;;;;;;;38.83;24.37;;;3.00;99.90;;;;;;4935715;29;20130;-85
2021/12/11 12:42:23;;;;;;;35.53;21.40;;;2.90;99.90;;;;;;4945249;23;20061;-83
2021/12/11 12:45:03;;;;;;;40.33;22.10;;;4.20;99.90;;;;;;4897063;29;20044;-82
2021/12/11 12:47:35;;;;;;;40.10;22.83;;;3.40;99.90;;;;;;4897112;29;20060;-83
2021/12/11 12:50:08;;;;;;;39.30;21.60;;;4.90;99.90;;;;;;4896947;29;20049;-82
2021/12/11 12:52:36;;;;;;;37.80;22.20;;;3.60;99.90;;;;;;4897466;29;20585;-83
2021/12/11 12:55:10;;;;;;;37.97;22.57;;;3.60;99.90;;;;;;4896437;29;20048;-84
2021/12/11 12:57:40;;;;;;;40.03;23.33;;;3.60;99.90;;;;;;4897047;29;20052;-82
2021/12/11 13:00:49;;;;;;;38.63;23.30;;;3.70;99.90;;;;;;4891432;29;20104;-83
2021/12/11 13:03:19;;;;;;;40.40;22.70;;;3.90;99.90;;;;;;4824060;29;20136;-82
2021/12/11 13:05:57;;;;;;;38.27;22.93;;;4.00;99.90;;;;;;4824203;29;20065;-81
2021/12/11 13:08:49;;;;;;;36.90;21.57;;;4.00;99.90;;;;;;4856248;29;20088;-82
2021/12/11 13:11:30;;;;;;;38.30;22.47;;;3.90;99.90;;;;;;4877864;29;20053;-82
2021/12/11 13:13:56;;;;;;;36.27;21.90;;;3.80;99.90;;;;;;4877139;29;20087;-82
2021/12/11 13:16:28;;;;;;;36.90;21.47;;;3.80;99.90;;;;;;4877185;29;20060;-81
2021/12/11 13:19:09;;;;;;;38.10;22.10;;;3.80;99.90;;;;;;4877488;29;20136;-82
2021/12/11 13:21:46;;;;;;;36.53;22.00;;;3.80;99.90;;;;;;4879277;29;20049;-82
2021/12/11 13:24:14;;;;;;;38.53;21.27;;;3.80;99.90;;;;;;4877012;29;20059;-82
2021/12/11 13:26:43;;;;;;;37.33;22.43;;;3.70;99.90;;;;;;4878930;29;20049;-82
2021/12/11 13:29:12;;;;;;;37.13;22.47;;;3.70;99.90;;;;;;4876902;29;20051;-82
2021/12/11 13:31:49;;;;;;;36.90;22.57;;;3.80;99.90;;;;;;4876795;29;20048;-82
2021/12/11 13:34:15;;;;;;;39.73;23.23;;;3.70;99.90;;;;;;4878131;29;20489;-84